Stanley Corner, South Dakota
Current Conditions -  °F | °C
As of 5:53 PM on Monday 20 Oct 2014 (Local Time) from KMHE Reporting Station
Clear Clear  
Wind Chill: 69°   Ceiling: Unl
Heat Index: 69°   Visibility: 10mi
Dew Point: 36°   Wind: 6mph
Humidity: 30%   Direction: 110°ESE
Pressure: 30.03"   Gusts: NA
Location:  43.5669°N, 97.5001°W
Report Text: KMHE 202253Z AUTO 11005KT 10SM CLR 21/02 A3003 RMK AO2 SLP170 T02060022
Loading
Personal Weather Stations






























Interactive Weather Map
Tropical Storm Tracking
New forecast layout! Learn more

10-Day Weather Forecast

Advertisements
Track Severe Weather on mobile